createdAt,value
2022-11-24T04:08:55.477Z,100810.98
2022-11-24T04:09:59.168Z,100820.77
2022-11-24T04:11:02.740Z,100825.30
2022-11-24T04:12:24.305Z,100825.30
2022-11-24T04:13:27.884Z,100837.10
2022-11-24T04:14:31.590Z,100837.10
2022-11-24T04:15:35.265Z,100833.25
2022-11-24T04:16:38.882Z,100831.92
2022-11-24T04:17:42.929Z,100828.92
2022-11-24T04:18:46.635Z,100829.58
2022-11-24T04:19:50.318Z,100821.50
2022-11-24T04:20:53.784Z,100830.27
2022-11-24T04:21:57.374Z,100829.27
2022-11-24T04:23:01.063Z,100828.27
2022-11-24T04:24:04.505Z,100829.94
2022-11-24T04:25:09.384Z,100829.78
2022-11-24T04:26:13.278Z,100836.87
2022-11-24T04:27:16.688Z,100831.33
2022-11-24T04:28:20.189Z,100822.05
2022-11-24T04:29:23.609Z,100820.05
2022-11-24T04:30:28.527Z,100825.45
2022-11-24T04:31:32.043Z,100823.59
2022-11-24T04:33:46.494Z,100821.27
2022-11-24T04:34:50.051Z,100815.36
2022-11-24T04:35:53.755Z,100813.48
2022-11-24T04:36:57.405Z,100821.56
2022-11-24T04:38:03.753Z,100822.59
2022-11-24T04:39:24.195Z,100824.25
2022-11-24T04:40:13.345Z,100824.25
2022-11-24T04:41:16.906Z,100823.44
2022-11-24T04:42:20.581Z,100825.29
2022-11-24T04:43:24.162Z,100826.30
2022-11-24T04:44:27.728Z,100834.22
2022-11-24T04:45:31.216Z,100836.92
2022-11-24T04:46:34.901Z,100833.03
2022-11-24T04:47:38.500Z,100829.49
2022-11-24T04:48:42.093Z,100834.22
2022-11-24T04:49:47.111Z,100839.42
2022-11-24T04:50:50.997Z,100834.22
2022-11-24T04:51:54.616Z,100821.56
2022-11-24T04:52:58.134Z,100837.73
2022-11-24T04:54:01.649Z,100830.34
2022-11-24T04:55:05.671Z,100825.80
2022-11-24T04:56:10.489Z,100824.95
2022-11-24T04:57:19.035Z,100815.86
2022-11-24T04:58:22.521Z,100821.25
2022-11-24T04:59:26.013Z,100815.02
2022-11-24T05:00:29.706Z,100821.41
2022-11-24T05:01:33.544Z,100817.20
2022-11-24T05:02:37.265Z,100832.53
2022-11-24T05:03:40.739Z,100837.07
2022-11-24T05:04:44.258Z,100837.07
2022-11-24T05:05:47.816Z,100837.07
2022-11-24T05:06:51.379Z,100832.53
2022-11-24T05:07:55.046Z,100837.73
2022-11-24T05:08:58.877Z,100825.80
2022-11-24T05:10:20.561Z,100826.64
2022-11-24T05:11:24.124Z,100820.25
2022-11-24T05:12:29.725Z,100823.10
2022-11-24T05:13:33.520Z,100830.19
2022-11-24T05:14:37.025Z,100823.10
2022-11-24T05:15:41.773Z,100825.80
2022-11-24T05:16:45.527Z,100822.25
2022-11-24T05:17:49.144Z,100819.90
2022-11-24T05:18:52.641Z,100830.84
2022-11-24T05:19:56.298Z,100821.20
2022-11-24T05:20:59.981Z,100824.24
2022-11-24T05:22:03.544Z,100835.17
2022-11-24T05:23:08.236Z,100829.78
2022-11-24T05:24:11.872Z,100833.48
2022-11-24T05:25:15.359Z,100830.97
2022-11-24T05:26:19.009Z,100823.88
2022-11-24T05:27:22.446Z,100832.97
2022-11-24T05:28:25.991Z,100829.58
2022-11-24T05:29:29.518Z,100833.30
2022-11-24T05:30:32.977Z,100834.13
2022-11-24T05:31:36.449Z,100840.55
2022-11-24T05:32:39.897Z,100848.78
2022-11-24T05:33:43.646Z,100845.94
2022-11-24T05:34:47.553Z,100845.94
2022-11-24T05:35:51.259Z,100845.94
2022-11-24T05:41:55.031Z,100841.34
2022-11-24T05:42:58.488Z,100840.46
2022-11-24T05:44:01.880Z,100838.92
2022-11-24T05:45:06.048Z,100830.98
2022-11-24T05:46:09.491Z,100842.09
2022-11-24T05:47:13.056Z,100835.17
2022-11-24T05:48:16.509Z,100834.31
2022-11-24T05:49:19.867Z,100837.70
2022-11-24T05:50:23.518Z,100833.02
2022-11-24T05:51:26.940Z,100829.33
2022-11-24T07:15:07.580Z,100811.11
2022-11-24T07:16:20.410Z,100810.59
2022-11-24T07:17:24.171Z,100813.50
2022-11-24T07:18:27.631Z,100811.02
2022-11-24T07:19:31.153Z,100815.23
2022-11-24T07:20:35.130Z,100803.82
2022-11-24T07:21:38.537Z,100808.57
2022-11-24T07:22:42.075Z,100807.08
2022-11-24T07:23:50.904Z,100801.05
2022-11-24T07:24:54.585Z,100807.67
2022-11-24T07:26:03.721Z,100807.67
2022-11-24T07:27:03.807Z,100809.06
2022-11-24T07:28:07.314Z,100819.16
2022-11-24T07:29:10.710Z,100823.23
2022-11-24T07:30:14.325Z,100818.36
2022-11-24T07:31:19.803Z,100818.56
2022-11-24T07:32:23.204Z,100812.17
2022-11-24T07:33:26.584Z,100812.17
2022-11-24T07:34:29.965Z,100813.37
2022-11-24T07:35:33.343Z,100806.63
2022-11-24T07:36:36.858Z,100802.63
2022-11-24T07:37:40.342Z,100795.19
2022-11-24T07:38:43.630Z,100796.57
2022-11-24T07:39:47.026Z,100789.98
2022-11-24T07:40:50.336Z,100797.92
2022-11-24T07:41:53.813Z,100806.70
2022-11-24T07:43:00.153Z,100809.21
2022-11-24T07:44:03.895Z,100814.45
2022-11-24T07:45:08.134Z,100814.95
2022-11-24T07:46:13.976Z,100812.09
2022-11-24T07:47:17.373Z,100814.48
2022-11-24T07:48:20.742Z,100818.67
2022-11-24T07:49:24.194Z,100819.17
2022-11-24T07:50:27.578Z,100822.25
2022-11-24T07:51:30.880Z,100826.95
2022-11-24T07:52:34.354Z,100823.59
2022-11-24T07:53:38.490Z,100813.98
2022-11-24T07:54:41.834Z,100817.02
2022-11-24T07:55:54.173Z,100811.13
2022-11-24T07:56:57.586Z,100820.05
2022-11-24T07:58:01.444Z,100813.48
2022-11-24T07:59:04.910Z,100816.02
2022-11-24T08:00:10.590Z,100805.72
2022-11-24T08:01:16.228Z,100808.75
2022-11-24T08:04:11.325Z,100810.61
2022-11-24T08:05:15.123Z,100804.02
2022-11-24T08:06:30.527Z,100801.16
2022-11-24T08:07:24.481Z,100799.98
2022-11-24T08:08:28.457Z,100804.02
2022-11-24T08:09:31.930Z,100789.31
2022-11-24T08:10:35.735Z,100781.89
2022-11-24T08:11:39.375Z,100786.13
2022-11-24T08:12:43.865Z,100781.38
2022-11-24T08:13:47.672Z,100779.36
2022-11-24T08:14:51.690Z,100781.70
2022-11-24T08:15:55.224Z,100783.88
2022-11-24T08:16:58.990Z,100787.09
2022-11-24T08:18:02.562Z,100781.17
2022-11-24T08:19:06.060Z,100774.59
2022-11-24T08:20:10.455Z,100775.23
2022-11-24T08:21:14.605Z,100771.53
2022-11-24T08:22:18.080Z,100774.23
2022-11-24T08:23:21.632Z,100777.94
2022-11-24T08:24:25.223Z,100771.05
2022-11-24T08:25:33.054Z,100773.91
2022-11-24T08:26:36.605Z,100771.38
2022-11-24T08:27:40.204Z,100773.06
2022-11-24T08:28:44.822Z,100775.59
2022-11-24T08:29:48.395Z,100778.47
2022-11-24T08:35:24.014Z,100771.05
2022-11-24T08:36:27.787Z,100768.03
2022-11-24T08:37:32.368Z,100765.48
2022-11-24T08:38:37.272Z,100765.69
2022-11-24T08:39:40.750Z,100765.00
2022-11-24T08:40:44.217Z,100757.91
2022-11-24T08:41:47.848Z,100767.87
2022-11-24T08:42:52.615Z,100765.53
2022-11-24T08:43:57.438Z,100760.29
2022-11-24T08:45:13.036Z,100760.45
2022-11-24T08:46:08.692Z,100763.16
2022-11-24T08:47:12.272Z,100769.40
2022-11-24T08:48:15.759Z,100765.69
2022-11-24T08:49:19.372Z,100768.39
2022-11-24T08:50:24.863Z,100761.98
2022-11-24T08:51:28.427Z,100770.08
2022-11-24T08:52:31.956Z,100765.53
2022-11-24T08:53:35.374Z,100769.72
2022-11-24T08:54:40.232Z,100769.56
2022-11-24T08:55:43.743Z,100762.14
2022-11-24T08:56:49.019Z,100759.08
2022-11-24T08:57:52.428Z,100759.56
2022-11-24T08:58:56.885Z,100750.45
2022-11-24T09:00:00.303Z,100754.67
2022-11-24T09:01:10.171Z,100757.22
2022-11-24T09:02:13.897Z,100760.56
2022-11-24T09:03:17.387Z,100757.70
2022-11-24T09:04:20.909Z,100758.55
2022-11-24T09:05:50.785Z,100754.83
2022-11-24T09:06:30.399Z,100743.83
2022-11-24T09:07:33.983Z,100747.20
2022-11-24T09:08:38.183Z,100743.33
2022-11-24T09:09:41.642Z,100739.42
2022-11-24T09:10:45.058Z,100734.70
2022-11-24T09:11:48.450Z,100728.28
2022-11-24T09:12:51.821Z,100733.69
2022-11-24T09:13:55.485Z,100737.20
2022-11-24T09:14:58.869Z,100734.50
2022-11-24T09:16:04.036Z,100743.64
2022-11-24T09:17:07.430Z,100744.66
2022-11-24T09:18:10.811Z,100749.05
2022-11-24T09:19:14.265Z,100763.41
2022-11-24T09:20:17.680Z,100763.21
2022-11-24T09:21:21.712Z,100769.30
2022-11-24T09:22:25.017Z,100771.63
2022-11-24T09:23:28.437Z,100758.80
2022-11-24T09:24:31.841Z,100771.14
2022-11-24T09:25:35.165Z,100770.77
2022-11-24T09:26:43.139Z,100760.80
2022-11-24T09:27:44.175Z,100761.28
2022-11-24T09:28:48.061Z,100761.97
2022-11-24T09:29:51.699Z,100766.16
2022-11-24T09:30:55.096Z,100772.92
2022-11-24T09:32:03.490Z,100760.05
2022-11-24T09:33:03.801Z,100768.00
2022-11-24T09:34:10.710Z,100758.03
2022-11-24T09:35:14.151Z,100762.42
2022-11-24T09:36:18.097Z,100759.18
2022-11-24T09:37:21.526Z,100760.67
2022-11-24T09:38:25.249Z,100753.91
2022-11-24T09:39:28.724Z,100750.84
2022-11-24T09:40:32.628Z,100747.80
2022-11-24T09:42:08.239Z,100741.17
2022-11-24T09:46:10.468Z,100750.20
2022-11-24T09:47:35.589Z,100745.20
2022-11-24T09:48:42.495Z,100747.73
2022-11-24T09:51:04.185Z,100740.42
2022-11-24T09:52:12.123Z,100738.97
2022-11-24T09:53:38.487Z,100741.48
2022-11-24T09:54:45.354Z,100735.05
2022-11-24T09:56:20.874Z,100738.60
2022-11-24T09:57:26.488Z,100743.00
2022-11-24T09:58:51.036Z,100742.83
2022-11-24T09:59:57.671Z,100735.53
2022-11-24T10:01:01.299Z,100740.94
2022-11-24T10:02:08.097Z,100735.53
2022-11-24T10:03:18.596Z,100742.45
2022-11-24T10:04:28.141Z,100727.75
2022-11-24T10:05:38.199Z,100723.82
2022-11-24T10:07:03.107Z,100724.29
2022-11-24T10:08:10.799Z,100721.41
2022-11-24T10:09:23.403Z,100731.69
2022-11-24T10:10:30.297Z,100731.34
2022-11-24T10:11:48.908Z,100735.54
2022-11-24T10:12:58.720Z,100733.37
2022-11-24T10:14:11.674Z,100734.68
2022-11-24T10:15:27.482Z,100726.86
2022-11-24T10:16:55.107Z,100734.80
2022-11-24T10:18:13.248Z,100741.06
2022-11-24T10:19:16.979Z,100743.09
2022-11-24T10:20:32.677Z,100743.94
2022-11-24T10:21:57.775Z,100739.38
2022-11-24T10:23:25.574Z,100738.52
2022-11-24T10:24:32.353Z,100739.55
2022-11-24T10:25:41.973Z,100736.37
2022-11-24T10:26:54.812Z,100742.63
2022-11-24T10:28:07.162Z,100737.56
2022-11-24T10:29:17.045Z,100735.02
2022-11-24T10:30:23.374Z,100733.37
2022-11-24T10:31:33.392Z,100727.95
2022-11-24T10:32:39.688Z,100728.13
2022-11-24T10:33:43.622Z,100731.98
2022-11-24T10:34:50.069Z,100728.64
2022-11-24T10:35:59.690Z,100733.04
2022-11-24T10:37:15.581Z,100725.73
2022-11-24T10:38:31.591Z,100723.70
2022-11-24T10:40:03.996Z,100724.41
2022-11-24T10:41:10.206Z,100720.85
2022-11-24T10:42:31.728Z,100717.44
2022-11-24T10:43:35.008Z,100718.46
2022-11-24T10:44:40.888Z,100712.03
2022-11-24T10:45:44.441Z,100714.73
2022-11-24T10:46:47.863Z,100718.28
2022-11-24T10:47:51.060Z,100717.30
2022-11-24T10:49:00.750Z,100709.86
2022-11-24T10:50:19.339Z,100705.93
2022-11-24T10:51:32.117Z,100705.76
2022-11-24T10:52:38.984Z,100700.98
2022-11-24T10:53:43.112Z,100700.81
2022-11-24T10:55:01.610Z,100696.07
2022-11-24T10:56:05.456Z,100692.14
2022-11-24T10:57:09.229Z,100691.79
2022-11-24T10:58:15.141Z,100688.91
2022-11-24T10:59:31.427Z,100679.73
2022-11-24T11:00:35.475Z,100683.50
2022-11-24T11:01:38.789Z,100682.45
2022-11-24T11:02:42.117Z,100677.70
2022-11-24T11:03:54.988Z,100682.09
2022-11-24T11:04:58.746Z,100682.94
2022-11-24T11:06:05.601Z,100680.41
2022-11-24T11:07:20.996Z,100678.08
2022-11-24T11:08:27.480Z,100675.05
2022-11-24T11:09:31.817Z,100675.81
2022-11-24T11:10:35.474Z,100676.54
2022-11-24T11:11:39.421Z,100677.87
2022-11-24T11:12:44.235Z,100680.95
2022-11-24T11:14:02.957Z,100679.64
2022-11-24T11:15:21.813Z,100683.91
2022-11-24T11:16:45.371Z,100680.91
2022-11-24T11:17:50.013Z,100681.63
2022-11-24T11:18:53.614Z,100686.54
2022-11-24T11:20:02.933Z,100686.73
2022-11-24T11:21:06.795Z,100684.03
2022-11-24T11:22:14.093Z,100679.47
2022-11-24T11:23:34.847Z,100675.72
2022-11-24T11:24:39.888Z,100676.56
2022-11-24T11:25:43.363Z,100677.41
2022-11-24T11:26:46.693Z,100672.00
2022-11-24T11:27:50.152Z,100672.00
2022-11-24T11:31:33.020Z,100675.08
2022-11-24T11:34:08.403Z,100667.51
2022-11-24T11:35:03.332Z,100669.71
2022-11-24T11:36:10.575Z,100667.18
2022-11-24T11:37:15.311Z,100669.07
2022-11-24T11:38:19.676Z,100660.12
2022-11-24T11:40:49.585Z,100657.63
2022-11-24T11:42:37.934Z,100660.41
2022-11-24T11:43:30.772Z,100655.00
2022-11-24T11:44:40.381Z,100668.53
2022-11-24T11:45:45.732Z,100664.98
2022-11-24T11:46:49.061Z,100659.56
2022-11-24T11:48:02.295Z,100670.02
2022-11-24T11:49:05.652Z,100666.12
2022-11-24T11:50:14.157Z,100671.16
2022-11-24T11:51:30.074Z,100666.42
2022-11-24T11:53:03.881Z,100664.19
2022-11-24T11:54:19.236Z,100659.62
2022-11-24T11:55:38.158Z,100654.20
2022-11-24T11:56:44.636Z,100655.72
2022-11-24T11:58:06.967Z,100653.66
2022-11-24T11:59:33.497Z,100654.33
2022-11-24T12:00:43.185Z,100651.45
2022-11-24T12:02:01.818Z,100651.08
2022-11-24T12:03:24.015Z,100648.20
2022-11-24T12:04:39.789Z,100651.54
2022-11-24T12:05:49.527Z,100647.81
2022-11-24T12:07:11.310Z,100630.39
2022-11-24T12:09:18.729Z,100631.88
2022-11-24T12:10:09.133Z,100628.85
2022-11-24T12:11:27.721Z,100625.12
2022-11-24T12:13:01.171Z,100628.47
2022-11-24T12:14:22.896Z,100625.77
2022-11-24T12:15:44.962Z,100624.74
2022-11-24T12:16:57.631Z,100622.88
2022-11-24T12:18:27.089Z,100633.88
2022-11-24T12:19:31.106Z,100633.03
2022-11-24T12:20:40.916Z,100629.48
2022-11-24T12:22:02.900Z,100630.33
2022-11-24T12:23:15.798Z,100629.48
2022-11-24T12:24:38.911Z,100627.83
2022-11-24T12:25:57.289Z,100628.67
2022-11-24T12:27:07.234Z,100629.87
2022-11-24T12:28:32.186Z,100630.01
2022-11-24T12:30:12.084Z,100631.88
2022-11-24T12:31:41.699Z,100623.12
2022-11-24T12:33:13.426Z,100619.07
2022-11-24T12:34:26.380Z,100619.45
2022-11-24T12:35:43.680Z,100624.19
2022-11-24T12:37:03.572Z,100624.40
2022-11-24T12:38:31.203Z,100623.55
2022-11-24T12:39:37.513Z,100617.85
2022-11-24T12:41:18.103Z,100620.73
2022-11-24T12:42:25.189Z,100610.09
2022-11-24T12:43:41.274Z,100623.81
2022-11-24T12:45:13.863Z,100631.92
2022-11-24T12:46:32.667Z,100625.00
2022-11-24T12:47:59.893Z,100634.13
2022-11-24T12:49:28.647Z,100626.19
2022-11-24T12:50:37.512Z,100626.19
2022-11-24T12:51:44.766Z,100632.65
2022-11-24T12:53:06.810Z,100631.13
2022-11-24T12:54:14.503Z,100619.64
2022-11-24T12:55:22.996Z,100627.96
2022-11-24T12:56:30.162Z,100624.41
2022-11-24T12:57:43.959Z,100626.27
2022-11-24T12:59:17.250Z,100625.43
2022-11-24T13:00:24.096Z,100620.02
2022-11-24T13:01:55.475Z,100624.76
2022-11-24T13:03:04.436Z,100625.98
2022-11-24T13:04:32.046Z,100631.73
2022-11-24T13:05:45.542Z,100634.64
2022-11-24T13:06:55.217Z,100629.57
2022-11-24T13:08:02.305Z,100629.74
2022-11-24T13:09:13.346Z,100629.95
2022-11-24T13:10:58.418Z,100629.95
2022-11-24T13:11:43.725Z,100635.69
2022-11-24T13:12:55.871Z,100629.81
2022-11-24T13:14:22.136Z,100621.23
2022-11-24T13:15:45.202Z,100629.52
2022-11-24T13:16:37.130Z,100625.97
2022-11-24T13:17:59.483Z,100625.12
2022-11-24T13:18:58.438Z,100623.63
2022-11-24T13:20:17.025Z,100622.59
2022-11-24T13:21:50.348Z,100626.34
2022-11-24T13:22:57.133Z,100623.63
2022-11-24T13:24:20.494Z,100625.83
2022-11-24T13:25:31.153Z,100630.77
2022-11-24T13:26:45.102Z,100632.97
2022-11-24T23:55:59.925Z,100609.58
2022-11-24T23:57:03.441Z,100620.70
2022-11-24T23:58:06.982Z,100624.58
2022-11-24T23:59:11.898Z,100617.84
